createdAt,value
2023-01-30T00:00:15.717Z,12.33
2023-01-30T00:03:02.479Z,12.30
2023-01-30T00:05:50.407Z,13.07
2023-01-30T00:08:37.167Z,12.53
2023-01-30T00:11:23.831Z,13.63
2023-01-30T00:14:10.539Z,13.37
2023-01-30T00:16:57.161Z,13.57
2023-01-30T00:19:43.390Z,13.60
2023-01-30T00:22:31.089Z,12.90
2023-01-30T00:25:17.995Z,13.30
2023-01-30T00:28:04.440Z,13.10
2023-01-30T00:30:51.592Z,13.27
2023-01-30T00:33:39.470Z,13.20
2023-01-30T00:36:26.191Z,12.13
2023-01-30T00:39:13.823Z,12.40
2023-01-30T00:42:17.611Z,12.33
2023-01-30T00:45:30.064Z,12.07
2023-01-30T00:48:16.613Z,12.37
2023-01-30T00:51:03.591Z,13.40
2023-01-30T00:53:50.310Z,12.30
2023-01-30T00:56:38.286Z,12.13
2023-01-30T00:59:24.977Z,11.80
2023-01-30T01:02:11.433Z,11.47
2023-01-30T01:04:57.769Z,11.63
2023-01-30T01:07:44.204Z,11.33
2023-01-30T01:10:30.818Z,12.13
2023-01-30T01:13:18.788Z,11.20
2023-01-30T01:16:05.842Z,12.07
2023-01-30T01:18:53.198Z,11.30
2023-01-30T01:21:39.590Z,11.20
2023-01-30T01:24:26.070Z,11.63
2023-01-30T01:27:12.689Z,11.00
2023-01-30T01:30:02.257Z,12.07
2023-01-30T01:32:49.332Z,12.93
2023-01-30T01:35:36.075Z,11.40
2023-01-30T01:38:22.461Z,12.10
2023-01-30T01:41:10.045Z,11.07
2023-01-30T01:44:03.575Z,11.47
2023-01-30T01:46:55.516Z,10.50
2023-01-30T01:49:42.117Z,10.13
2023-01-30T01:52:28.519Z,10.77
2023-01-30T01:55:16.524Z,11.47
2023-01-30T01:58:08.331Z,10.27
2023-01-30T02:00:59.012Z,10.73
2023-01-30T02:03:51.970Z,10.40
2023-01-30T02:06:40.771Z,10.47
2023-01-30T02:09:27.556Z,10.87
2023-01-30T02:12:16.460Z,10.07
2023-01-30T02:15:05.146Z,11.27
2023-01-30T02:17:51.513Z,10.57
2023-01-30T02:21:03.701Z,10.23
2023-01-30T02:24:19.841Z,10.43
2023-01-30T02:27:21.427Z,10.47
2023-01-30T02:30:25.554Z,10.37
2023-01-30T02:33:20.387Z,10.60
2023-01-30T02:36:17.284Z,9.87
2023-01-30T02:39:09.783Z,10.77
2023-01-30T02:42:05.067Z,10.80
2023-01-30T02:44:56.753Z,10.60
2023-01-30T02:47:48.237Z,10.73
2023-01-30T02:50:41.351Z,10.77
2023-01-30T02:53:31.288Z,10.57
2023-01-30T02:56:18.257Z,11.93
2023-01-30T02:59:07.058Z,10.80
2023-01-30T03:02:23.942Z,11.43
2023-01-30T03:05:28.412Z,11.13
2023-01-30T03:08:24.994Z,11.17
2023-01-30T03:11:13.000Z,12.23
2023-01-30T03:14:09.297Z,11.70
2023-01-30T03:16:59.400Z,12.10
2023-01-30T03:19:46.515Z,11.10
2023-01-30T03:22:33.180Z,11.83
2023-01-30T03:25:26.591Z,12.20
2023-01-30T03:28:15.886Z,12.20
2023-01-30T03:31:02.651Z,11.40
2023-01-30T03:33:49.024Z,13.03
2023-01-30T03:36:35.475Z,12.40
2023-01-30T03:39:22.332Z,12.10
2023-01-30T03:42:11.293Z,12.27
2023-01-30T03:44:57.863Z,12.67
2023-01-30T03:47:44.318Z,13.77
2023-01-30T03:50:30.627Z,12.43
2023-01-30T03:53:17.173Z,12.50
2023-01-30T03:56:03.713Z,12.77
2023-01-30T03:58:51.518Z,12.00
2023-01-30T04:01:38.016Z,13.27
2023-01-30T04:04:24.497Z,12.50
2023-01-30T04:07:11.017Z,13.10
2023-01-30T04:09:57.466Z,14.00
2023-01-30T04:12:43.847Z,13.30
2023-01-30T04:15:31.780Z,12.87
2023-01-30T04:18:18.601Z,13.83
2023-01-30T04:21:05.416Z,14.10
2023-01-30T04:23:51.611Z,12.60
2023-01-30T04:26:38.021Z,13.73
2023-01-30T04:29:24.245Z,13.93
2023-01-30T04:32:12.101Z,12.57
2023-01-30T04:34:58.609Z,12.13
2023-01-30T04:37:44.965Z,12.57
2023-01-30T04:40:31.456Z,12.83
2023-01-30T04:43:18.450Z,13.23
2023-01-30T04:46:04.860Z,12.00
2023-01-30T04:48:52.663Z,13.10
2023-01-30T04:51:39.255Z,12.37
2023-01-30T04:54:25.513Z,12.27
2023-01-30T04:57:11.893Z,13.17
2023-01-30T04:59:58.419Z,12.63
2023-01-30T05:02:44.750Z,12.73
2023-01-30T05:05:32.413Z,13.13
2023-01-30T05:08:19.815Z,11.80
2023-01-30T05:11:06.595Z,12.17
2023-01-30T05:13:53.482Z,12.73
2023-01-30T05:16:39.729Z,12.87
2023-01-30T05:19:26.097Z,12.10
2023-01-30T05:22:13.901Z,13.00
2023-01-30T05:25:00.381Z,14.07
2023-01-30T05:27:46.769Z,12.20
2023-01-30T05:30:33.025Z,13.17
2023-01-30T05:33:19.603Z,11.90
2023-01-30T05:36:06.286Z,11.77
2023-01-30T05:38:54.047Z,12.83
2023-01-30T05:41:40.732Z,11.00
2023-01-30T05:44:27.304Z,11.83
2023-01-30T05:47:13.760Z,12.40
2023-01-30T05:50:00.465Z,11.87
2023-01-30T05:52:47.024Z,12.53
2023-01-30T05:55:34.685Z,13.83
2023-01-30T05:58:21.053Z,11.73
2023-01-30T06:01:09.660Z,12.73
2023-01-30T06:03:56.864Z,16.87
2023-01-30T06:06:43.607Z,13.20
2023-01-30T06:09:30.207Z,13.00
2023-01-30T06:12:18.133Z,13.27
2023-01-30T06:15:04.708Z,13.40
2023-01-30T06:17:51.119Z,19.80
2023-01-30T06:20:38.004Z,13.80
2023-01-30T06:23:24.628Z,18.23
2023-01-30T06:26:11.422Z,13.00
2023-01-30T06:28:59.273Z,12.10
2023-01-30T06:31:45.888Z,12.20
2023-01-30T06:34:32.410Z,10.63
2023-01-30T06:37:18.796Z,11.00
2023-01-30T06:40:05.717Z,10.20
2023-01-30T06:42:52.643Z,10.47
2023-01-30T06:45:40.627Z,10.67
2023-01-30T06:48:26.934Z,10.10
2023-01-30T06:51:13.357Z,10.20
2023-01-30T06:53:59.740Z,9.33
2023-01-30T06:56:46.185Z,9.67
2023-01-30T06:59:32.840Z,10.23
2023-01-30T07:02:20.731Z,9.73
2023-01-30T07:05:09.396Z,9.83
2023-01-30T07:07:56.244Z,10.47
2023-01-30T07:10:43.915Z,9.83
2023-01-30T07:13:30.512Z,9.40
2023-01-30T07:16:16.904Z,9.53
2023-01-30T07:19:05.094Z,8.70
2023-01-30T07:21:51.578Z,8.00
2023-01-30T07:24:38.376Z,8.53
2023-01-30T07:27:24.565Z,9.57
2023-01-30T07:30:12.138Z,8.77
2023-01-30T07:33:00.445Z,7.87
2023-01-30T07:35:48.083Z,8.70
2023-01-30T07:38:34.576Z,7.67
2023-01-30T07:41:21.335Z,8.43
2023-01-30T07:44:07.887Z,7.90
2023-01-30T07:46:54.206Z,8.07
2023-01-30T07:49:40.446Z,8.60
2023-01-30T07:52:28.299Z,7.33
2023-01-30T07:55:15.390Z,8.00
2023-01-30T07:58:02.581Z,8.60
2023-01-30T08:00:49.041Z,7.67
2023-01-30T08:03:35.627Z,7.33
2023-01-30T08:06:22.164Z,6.90
2023-01-30T08:09:10.320Z,7.23
2023-01-30T08:11:57.116Z,7.60
2023-01-30T08:14:43.889Z,6.23
2023-01-30T08:17:30.280Z,6.23
2023-01-30T08:20:18.178Z,6.67
2023-01-30T08:23:05.351Z,6.70
2023-01-30T08:25:56.212Z,7.00
2023-01-30T08:28:43.135Z,6.70
2023-01-30T08:31:29.779Z,6.07
2023-01-30T08:34:16.153Z,6.17
2023-01-30T08:37:02.750Z,5.53
2023-01-30T08:39:49.282Z,6.00
2023-01-30T08:42:37.109Z,7.43
2023-01-30T08:45:23.555Z,5.80
2023-01-30T08:48:10.895Z,5.60
2023-01-30T08:50:57.715Z,5.67
2023-01-30T08:53:44.065Z,5.20
2023-01-30T08:56:30.475Z,4.67
2023-01-30T08:59:18.420Z,5.80
2023-01-30T09:02:04.689Z,5.07
2023-01-30T09:04:51.131Z,5.27
2023-01-30T09:07:37.655Z,5.27
2023-01-30T09:10:24.552Z,5.23
2023-01-30T09:13:11.100Z,5.07
2023-01-30T09:15:59.546Z,5.17
2023-01-30T09:18:45.996Z,4.77
2023-01-30T09:21:32.859Z,5.07
2023-01-30T09:24:19.598Z,6.07
2023-01-30T09:27:06.532Z,6.13
2023-01-30T09:29:53.162Z,4.70
2023-01-30T09:32:40.978Z,5.17
2023-01-30T09:35:27.659Z,4.90
2023-01-30T09:38:13.977Z,5.10
2023-01-30T09:41:17.818Z,4.60
2023-01-30T09:44:19.288Z,4.83
2023-01-30T09:47:11.740Z,4.87
2023-01-30T09:50:08.842Z,4.43
2023-01-30T09:53:02.768Z,4.37
2023-01-30T09:55:49.498Z,4.80
2023-01-30T09:58:46.760Z,4.70
2023-01-30T10:01:41.971Z,4.43
2023-01-30T10:04:34.196Z,3.60
2023-01-30T10:07:32.550Z,4.30
2023-01-30T10:10:31.502Z,4.03
2023-01-30T10:13:40.429Z,3.90
2023-01-30T10:16:31.509Z,3.70
2023-01-30T10:19:35.958Z,4.60
2023-01-30T10:22:39.601Z,4.67
2023-01-30T10:25:32.738Z,4.20
2023-01-30T10:28:23.697Z,4.40
2023-01-30T10:31:15.810Z,3.30
2023-01-30T10:34:04.723Z,3.77
2023-01-30T10:36:56.914Z,3.90
2023-01-30T10:39:55.410Z,3.23
2023-01-30T10:42:48.426Z,3.60
2023-01-30T10:45:40.990Z,3.50
2023-01-30T10:48:46.376Z,4.13
2023-01-30T10:51:43.314Z,4.30
2023-01-30T10:54:37.152Z,3.60
2023-01-30T10:57:33.244Z,3.70
2023-01-30T11:00:27.050Z,3.43
2023-01-30T11:03:27.403Z,3.30
2023-01-30T11:06:18.065Z,3.50
2023-01-30T11:09:04.729Z,3.17
2023-01-30T11:11:53.973Z,2.97
2023-01-30T11:14:59.743Z,3.50
2023-01-30T11:17:46.754Z,3.27
2023-01-30T11:20:40.810Z,3.80
2023-01-30T11:23:32.247Z,3.43
2023-01-30T11:26:22.404Z,3.10
2023-01-30T11:29:26.973Z,3.10
2023-01-30T11:32:23.851Z,3.30
2023-01-30T11:35:26.592Z,3.67
2023-01-30T11:38:21.133Z,6.20
2023-01-30T11:41:19.152Z,3.40
2023-01-30T11:44:06.727Z,3.10
2023-01-30T11:46:53.436Z,3.43
2023-01-30T11:50:07.418Z,3.40
2023-01-30T11:52:53.366Z,2.60
2023-01-30T11:55:41.750Z,4.17
2023-01-30T11:58:32.749Z,2.67
2023-01-30T12:01:19.549Z,3.83
2023-01-30T12:04:10.212Z,3.10
2023-01-30T12:07:09.050Z,3.07
2023-01-30T12:09:56.792Z,3.13
2023-01-30T12:12:48.035Z,6.53
2023-01-30T12:15:36.264Z,3.17
2023-01-30T12:18:31.051Z,3.17
2023-01-30T12:21:29.550Z,3.00
2023-01-30T12:24:23.910Z,3.40
2023-01-30T12:27:16.540Z,3.63
2023-01-30T12:30:11.692Z,2.90
2023-01-30T12:35:59.193Z,3.20
2023-01-30T12:39:06.186Z,3.20
2023-01-30T12:42:12.107Z,2.73
2023-01-30T12:45:07.652Z,2.67
2023-01-30T12:48:29.510Z,2.60
2023-01-30T12:51:30.495Z,3.17
2023-01-30T12:54:27.759Z,3.53
2023-01-30T12:57:25.193Z,5.60
2023-01-30T13:00:30.572Z,3.13
2023-01-30T13:03:27.756Z,2.10
2023-01-30T13:06:33.566Z,2.80
2023-01-30T13:09:39.384Z,2.67
2023-01-30T13:12:38.741Z,2.23
2023-01-30T13:15:33.203Z,2.00
2023-01-30T13:18:25.921Z,2.40
2023-01-30T13:21:18.135Z,2.57
2023-01-30T13:24:19.717Z,2.97
2023-01-30T13:27:10.539Z,2.90
2023-01-30T13:30:00.293Z,3.07
2023-01-30T13:32:50.431Z,2.77
2023-01-30T13:35:43.238Z,2.83
2023-01-30T13:38:32.781Z,2.07
2023-01-30T13:41:20.406Z,2.50
2023-01-30T13:44:16.788Z,1.90
2023-01-30T13:47:15.829Z,2.53
2023-01-30T13:50:20.302Z,2.27
2023-01-30T13:53:12.987Z,2.43
2023-01-30T13:56:08.958Z,2.23
2023-01-30T13:59:09.909Z,2.63
2023-01-30T14:02:19.236Z,2.37
2023-01-30T14:05:06.361Z,2.67
2023-01-30T14:07:53.042Z,2.50
2023-01-30T14:10:40.911Z,2.40
2023-01-30T14:13:31.228Z,2.53
2023-01-30T14:16:19.782Z,2.33
2023-01-30T14:19:31.297Z,2.73
2023-01-30T14:22:24.208Z,2.87
2023-01-30T14:25:35.228Z,2.67
2023-01-30T14:28:49.450Z,2.40
2023-01-30T14:31:54.905Z,2.07
2023-01-30T14:34:43.713Z,2.20
2023-01-30T14:38:12.860Z,2.73
2023-01-30T14:41:25.648Z,2.40
2023-01-30T14:44:12.341Z,2.30
2023-01-30T14:46:58.935Z,2.63
2023-01-30T14:49:48.201Z,2.57
2023-01-30T14:52:41.502Z,4.70
2023-01-30T14:55:30.703Z,2.43
2023-01-30T14:58:19.959Z,2.60
2023-01-30T15:01:06.706Z,2.40
2023-01-30T15:03:53.784Z,2.50
2023-01-30T15:06:41.844Z,1.90
2023-01-30T15:09:32.471Z,2.07
2023-01-30T15:12:43.915Z,2.27
2023-01-30T15:15:36.661Z,2.30
2023-01-30T15:18:45.947Z,2.00
2023-01-30T15:21:49.543Z,3.33
2023-01-30T15:25:16.665Z,2.10
2023-01-30T15:28:29.345Z,2.07
2023-01-30T15:31:19.071Z,2.80
2023-01-30T15:34:20.056Z,1.73
2023-01-30T15:37:29.509Z,2.67
2023-01-30T15:40:25.257Z,2.63
2023-01-30T15:43:22.963Z,2.13
2023-01-30T15:46:16.228Z,2.40
2023-01-30T15:49:21.975Z,2.37
2023-01-30T15:52:16.757Z,2.60
2023-01-30T15:55:03.413Z,3.63
2023-01-30T15:57:53.954Z,3.97
2023-01-30T16:00:46.705Z,3.67
2023-01-30T16:03:36.762Z,6.53
2023-01-30T16:06:29.108Z,5.50
2023-01-30T16:09:21.868Z,3.10
2023-01-30T16:12:24.467Z,2.23
2023-01-30T16:15:19.528Z,2.20
2023-01-30T16:18:14.974Z,2.30
2023-01-30T16:21:04.212Z,2.53
2023-01-30T16:23:57.010Z,2.23
2023-01-30T16:26:49.401Z,2.30
2023-01-30T16:29:45.139Z,3.20
2023-01-30T16:32:33.668Z,2.87
2023-01-30T16:35:34.033Z,2.23
2023-01-30T16:38:38.353Z,2.77
2023-01-30T16:41:33.488Z,2.20
2023-01-30T16:44:22.812Z,3.13
2023-01-30T16:47:24.030Z,2.50
2023-01-30T16:50:20.645Z,2.50
2023-01-30T16:53:13.940Z,3.50
2023-01-30T16:56:02.574Z,2.67
2023-01-30T16:58:53.416Z,3.03
2023-01-30T17:01:42.630Z,3.50
2023-01-30T17:04:31.444Z,3.10
2023-01-30T17:07:35.008Z,3.30
2023-01-30T17:10:56.287Z,3.10
2023-01-30T17:13:43.545Z,2.30
2023-01-30T17:16:34.262Z,3.00
2023-01-30T17:19:22.250Z,4.70
2023-01-30T17:22:19.194Z,3.40
2023-01-30T17:25:14.992Z,2.93
2023-01-30T17:28:01.686Z,2.97
2023-01-30T17:30:49.966Z,3.03
2023-01-30T17:33:36.709Z,2.63
2023-01-30T17:36:27.804Z,3.10
2023-01-30T17:39:18.195Z,2.43
2023-01-30T17:42:07.336Z,2.57
2023-01-30T17:44:54.100Z,3.20
2023-01-30T17:47:40.411Z,2.67
2023-01-30T17:50:28.483Z,3.53
2023-01-30T17:53:16.317Z,2.50
2023-01-30T17:56:02.895Z,3.23
2023-01-30T17:58:50.716Z,3.20
2023-01-30T18:01:37.076Z,2.90
2023-01-30T18:04:23.799Z,3.00
2023-01-30T18:07:16.469Z,2.90
2023-01-30T18:10:04.764Z,3.13
2023-01-30T18:12:53.417Z,2.90
2023-01-30T18:15:40.359Z,3.13
2023-01-30T18:18:27.568Z,4.00
2023-01-30T18:21:13.931Z,2.70
2023-01-30T18:24:02.324Z,3.20
2023-01-30T18:26:50.134Z,3.83
2023-01-30T18:29:36.773Z,2.70
2023-01-30T18:32:23.053Z,2.80
2023-01-30T18:35:10.387Z,2.33
2023-01-30T18:38:01.692Z,2.40
2023-01-30T18:40:49.419Z,2.83
2023-01-30T18:43:37.429Z,2.50
2023-01-30T18:46:24.474Z,3.47
2023-01-30T18:49:11.207Z,2.77
2023-01-30T18:51:58.154Z,2.60
2023-01-30T18:54:44.421Z,3.27
2023-01-30T18:57:30.784Z,2.50
2023-01-30T19:00:21.292Z,3.10
2023-01-30T19:03:08.221Z,3.23
2023-01-30T19:05:55.289Z,2.00
2023-01-30T19:08:41.947Z,2.43
2023-01-30T19:11:46.192Z,2.87
2023-01-30T19:14:32.850Z,2.77
2023-01-30T19:17:20.430Z,2.93
2023-01-30T19:20:10.991Z,3.00
2023-01-30T19:22:57.709Z,2.80
2023-01-30T19:25:44.021Z,3.00
2023-01-30T19:28:31.725Z,2.83
2023-01-30T19:31:20.945Z,2.53
2023-01-30T19:34:28.752Z,3.10
2023-01-30T19:37:15.397Z,3.50
2023-01-30T19:40:03.363Z,2.63
2023-01-30T19:42:54.743Z,2.70
2023-01-30T19:45:44.255Z,2.83
2023-01-30T19:48:35.859Z,2.83
2023-01-30T19:51:26.134Z,2.80
2023-01-30T19:54:13.354Z,3.70
2023-01-30T19:57:00.063Z,3.17
2023-01-30T19:59:46.593Z,2.90
2023-01-30T20:02:32.962Z,3.30
2023-01-30T20:05:20.401Z,5.00
2023-01-30T20:08:08.752Z,3.20
2023-01-30T20:11:02.221Z,3.93
2023-01-30T20:13:49.538Z,3.43
2023-01-30T20:16:37.412Z,3.40
2023-01-30T20:19:24.455Z,3.43
2023-01-30T20:22:11.143Z,4.70
2023-01-30T20:24:59.199Z,3.70
2023-01-30T20:27:45.929Z,4.27
2023-01-30T20:30:33.624Z,3.60
2023-01-30T20:33:20.011Z,5.37
2023-01-30T20:36:08.347Z,2.93
2023-01-30T20:38:56.062Z,3.80
2023-01-30T20:41:44.425Z,3.13
2023-01-30T20:44:31.072Z,3.40
2023-01-30T20:47:17.651Z,3.97
2023-01-30T20:50:04.189Z,3.37
2023-01-30T20:52:52.547Z,5.33
2023-01-30T20:55:39.616Z,4.00
2023-01-30T20:58:27.942Z,4.70
2023-01-30T21:01:18.360Z,3.20
2023-01-30T21:04:07.447Z,3.40
2023-01-30T21:06:54.142Z,2.97
2023-01-30T21:09:40.382Z,2.80
2023-01-30T21:12:26.759Z,3.17
2023-01-30T21:15:14.510Z,2.67
2023-01-30T21:18:01.473Z,3.63
2023-01-30T21:20:50.740Z,2.80
2023-01-30T21:23:37.934Z,3.27
2023-01-30T21:26:27.287Z,3.07
2023-01-30T21:29:14.446Z,2.70
2023-01-30T21:32:02.110Z,3.17
2023-01-30T21:34:48.819Z,2.70
2023-01-30T21:37:52.567Z,2.23
2023-01-30T21:40:56.668Z,3.23
2023-01-30T21:43:43.226Z,3.37
2023-01-30T21:46:30.334Z,3.00
2023-01-30T21:49:19.254Z,3.13
2023-01-30T21:52:06.147Z,3.73
2023-01-30T21:54:52.689Z,3.30
2023-01-30T21:57:39.222Z,3.67
2023-01-30T22:00:25.846Z,3.13
2023-01-30T22:03:12.417Z,5.10
2023-01-30T22:06:01.360Z,4.07
2023-01-30T22:08:48.241Z,4.03
2023-01-30T22:11:37.602Z,2.90
2023-01-30T22:14:23.986Z,3.43
2023-01-30T22:17:10.469Z,3.37
2023-01-30T22:19:56.776Z,3.80
2023-01-30T22:22:44.453Z,3.87
2023-01-30T22:25:30.731Z,3.17
2023-01-30T22:28:16.919Z,4.57
2023-01-30T22:31:04.974Z,3.70
2023-01-30T22:33:55.054Z,3.00
2023-01-30T22:36:41.840Z,3.70
2023-01-30T22:39:29.505Z,5.23
2023-01-30T22:42:16.677Z,3.70
2023-01-30T22:45:03.550Z,3.30
2023-01-30T22:47:49.884Z,4.13
2023-01-30T22:50:36.323Z,2.97
2023-01-30T22:53:22.885Z,3.47
2023-01-30T22:56:12.065Z,2.83
2023-01-30T22:58:58.988Z,2.87
2023-01-30T23:01:48.078Z,2.70
2023-01-30T23:04:34.639Z,3.00
2023-01-30T23:07:22.139Z,3.10
2023-01-30T23:10:09.554Z,4.57
2023-01-30T23:13:09.354Z,3.90
2023-01-30T23:15:59.758Z,3.07
2023-01-30T23:18:58.661Z,4.20
2023-01-30T23:21:46.790Z,3.37
2023-01-30T23:24:33.322Z,4.67
2023-01-30T23:27:20.241Z,4.37
2023-01-30T23:30:09.700Z,4.13
2023-01-30T23:32:56.181Z,7.93
2023-01-30T23:35:42.492Z,4.63
2023-01-30T23:38:29.022Z,4.13
2023-01-30T23:41:17.847Z,3.43
2023-01-30T23:44:04.771Z,2.70
2023-01-30T23:46:52.600Z,3.63
2023-01-30T23:49:39.145Z,2.83
2023-01-30T23:52:25.626Z,2.87
2023-01-30T23:55:12.096Z,3.00
2023-01-30T23:57:58.896Z,2.80
